Observation data for Sundown on 11/17/2019      Previous  Date       Current Mesonet Observations  Soil Data  Daily Summary Page  Observations in Plain Language
KSDS 170600Z 22011KT 08/02 A2996 RMK A01 T00830020  RH  066%=      5-min Rain = 0
KSDS 170605Z 22010KT 08/02 A2996 RMK A01 T00800019  RH  066%=      5-min Rain = 0
KSDS 170610Z 22011KT 08/02 A2996 RMK A01 T00780019  RH  067%=      5-min Rain = 0
KSDS 170615Z 22009KT 08/02 A2996 RMK A01 T00760018  RH  068%=      5-min Rain = 0
KSDS 170620Z 23009KT 07/02 A2996 RMK A01 T00730017  RH  069%=      5-min Rain = 0
KSDS 170625Z 23009KT 07/02 A2996 RMK A01 T00700017  RH  070%=      5-min Rain = 0
KSDS 170630Z 23009KT 07/02 A2996 RMK A01 T00680017  RH  071%=      5-min Rain = 0
KSDS 170635Z 24009KT 07/02 A2996 RMK A01 T00650016  RH  072%=      5-min Rain = 0
KSDS 170640Z 24008KT 06/02 A2996 RMK A01 T00620015  RH  073%=      5-min Rain = 0
KSDS 170645Z 26007KT 06/01 A2997 RMK A01 T00570013  RH  074%=      5-min Rain = 0
KSDS 170650Z 25009KT 06/01 A2997 RMK A01 T00550014  RH  076%=      5-min Rain = 0
KSDS 170655Z 26008KT 05/02 A2997 RMK A01 T00540015  RH  077%=      5-min Rain = 0
KSDS 170700Z 25009KT 06/02 A2996 RMK A01 T00580018  RH  076%=      5-min Rain = 0
KSDS 170705Z 25008KT 06/02 A2996 RMK A01 T00590018  RH  076%=      5-min Rain = 0
KSDS 170710Z 25009KT 06/02 A2996 RMK A01 T00590018  RH  076%=      5-min Rain = 0
KSDS 170715Z 25009KT 06/02 A2996 RMK A01 T00600018  RH  076%=      5-min Rain = 0
KSDS 170720Z 26009KT 06/02 A2996 RMK A01 T00580017  RH  076%=      5-min Rain = 0
KSDS 170725Z 27009KT 06/02 A2996 RMK A01 T00560016  RH  077%=      5-min Rain = 0
KSDS 170730Z 27008KT 06/02 A2996 RMK A01 T00570015  RH  076%=      5-min Rain = 0
KSDS 170735Z 27008KT 06/01 A2996 RMK A01 T00570013  RH  074%=      5-min Rain = 0
KSDS 170740Z 27009KT 06/01 A2996 RMK A01 T00570010  RH  073%=      5-min Rain = 0
KSDS 170745Z 27008KT 06/01 A2996 RMK A01 T00580008  RH  071%=      5-min Rain = 0
KSDS 170750Z 33010KT 06/01 A2997 RMK A01 T00560006  RH  071%=      5-min Rain = 0
KSDS 170755Z 34011KT 05/01 A2997 RMK A01 T00520006  RH  073%=      5-min Rain = 0
KSDS 170800Z 34010KT 05/01 A2997 RMK A01 T00510006  RH  073%=      5-min Rain = 0
KSDS 170805Z 33009KT 05/00 A2997 RMK A01 T00480004  RH  074%=      5-min Rain = 0
KSDS 170810Z 33008KT 05/00 A2997 RMK A01 T00450002  RH  075%=      5-min Rain = 0
KSDS 170815Z 32008KT 04/00 A2997 RMK A01 T00420001  RH  075%=      5-min Rain = 0
KSDS 170820Z 32009KT 04/M00 A2997 RMK A01 T00401001  RH  076%=      5-min Rain = 0
KSDS 170825Z 32008KT 04/M00 A2997 RMK A01 T00391001  RH  076%=      5-min Rain = 0
KSDS 170830Z 32007KT 04/M00 A2997 RMK A01 T00391002  RH  076%=      5-min Rain = 0
KSDS 170835Z 32008KT 04/M00 A2997 RMK A01 T00371003  RH  076%=      5-min Rain = 0
KSDS 170840Z 32009KT 04/M00 A2998 RMK A01 T00371003  RH  076%=      5-min Rain = 0
KSDS 170845Z 33010KT 04/M00 A2998 RMK A01 T00401002  RH  075%=      5-min Rain = 0
KSDS 170850Z 33010KT 04/M00 A2998 RMK A01 T00431002  RH  074%=      5-min Rain = 0
KSDS 170855Z 33011KT 05/M00 A2998 RMK A01 T00461002  RH  072%=      5-min Rain = 0
KSDS 170900Z 33013KT 06/M00 A2998 RMK A01 T00551001  RH  068%=      5-min Rain = 0
KSDS 170905Z 34013KT 06/M00 A2999 RMK A01 T00591002  RH  066%=      5-min Rain = 0
KSDS 170910Z 35013KT 06/M00 A2999 RMK A01 T00621002  RH  064%=      5-min Rain = 0
KSDS 170915Z 36015G20KT 07/M00 A2999 RMK A01 T00731002  RH  059%=      5-min Rain = 0
KSDS 170920Z 36015G20KT 08/M00 A2999 RMK A01 T00821003  RH  056%=      5-min Rain = 0
KSDS 170925Z 36016G22KT 08/M01 A2999 RMK A01 T00831005  RH  055%=      5-min Rain = 0
KSDS 170930Z 00017G22KT 09/M01 A30 RMK A01 T00861007  RH  052%=      5-min Rain = 0
KSDS 170935Z 00018G26KT 09/M01 A3001 RMK A01 T00861009  RH  052%=      5-min Rain = 0
KSDS 170940Z 00018G25KT 09/M01 A3001 RMK A01 T00861010  RH  052%=      5-min Rain = 0
KSDS 170945Z 00017G23KT 08/M01 A3001 RMK A01 T00821010  RH  053%=      5-min Rain = 0
KSDS 170950Z 00016G23KT 08/M01 A3001 RMK A01 T00801011  RH  053%=      5-min Rain = 0
KSDS 170955Z 00016G22KT 08/M01 A3002 RMK A01 T00791011  RH  054%=      5-min Rain = 0
KSDS 171000Z 00017G23KT 08/M01 A3002 RMK A01 T00791012  RH  053%=      5-min Rain = 0
KSDS 171005Z 00019G30KT 08/M01 A3002 RMK A01 T00831014  RH  051%=      5-min Rain = 0
KSDS 171010Z 00018G23KT 08/M02 A3003 RMK A01 T00841015  RH  050%=      5-min Rain = 0
KSDS 171015Z 36017G22KT 08/M02 A3003 RMK A01 T00831016  RH  050%=      5-min Rain = 0
KSDS 171020Z 36018G23KT 08/M02 A3004 RMK A01 T00831017  RH  050%=      5-min Rain = 0
KSDS 171025Z 00019G29KT 08/M02 A3004 RMK A01 T00841018  RH  049%=      5-min Rain = 0
KSDS 171030Z 00017G22KT 09/M02 A3004 RMK A01 T00851018  RH  049%=      5-min Rain = 0
KSDS 171035Z 00015G20KT 08/M02 A3004 RMK A01 T00831019  RH  049%=      5-min Rain = 0
KSDS 171040Z 00015G21KT 08/M02 A3004 RMK A01 T00821019  RH  049%=      5-min Rain = 0
KSDS 171045Z 00016KT 08/M02 A3005 RMK A01 T00821018  RH  050%=      5-min Rain = 0
KSDS 171050Z 00016KT 08/M02 A3005 RMK A01 T00831018  RH  050%=      5-min Rain = 0
KSDS 171055Z 00015G21KT 08/M02 A3005 RMK A01 T00821018  RH  050%=      5-min Rain = 0
KSDS 171100Z 00016KT 08/M02 A3005 RMK A01 T00811017  RH  050%=      5-min Rain = 0
KSDS 171105Z 36017G22KT 08/M02 A3006 RMK A01 T00821017  RH  050%=      5-min Rain = 0
KSDS 171110Z 00019G25KT 08/M02 A3006 RMK A01 T00821016  RH  050%=      5-min Rain = 0
KSDS 171115Z 00020G28KT 08/M02 A3006 RMK A01 T00831016  RH  050%=      5-min Rain = 0
KSDS 171120Z 00018G26KT 08/M02 A3007 RMK A01 T00801015  RH  051%=      5-min Rain = 0
KSDS 171125Z 00021G28KT 08/M02 A3007 RMK A01 T00801015  RH  052%=      5-min Rain = 0
KSDS 171130Z 00019G24KT 08/M01 A3007 RMK A01 T00781014  RH  053%=      5-min Rain = 0
KSDS 171135Z 00020G27KT 08/M01 A3007 RMK A01 T00771014  RH  053%=      5-min Rain = 0
KSDS 171140Z 00019G25KT 08/M01 A3008 RMK A01 T00751014  RH  054%=      5-min Rain = 0
KSDS 171145Z 00019G27KT 07/M01 A3008 RMK A01 T00741013  RH  054%=      5-min Rain = 0
KSDS 171150Z 00019G26KT 07/M01 A3008 RMK A01 T00731013  RH  055%=      5-min Rain = 0
KSDS 171155Z 00019G25KT 07/M01 A3009 RMK A01 T00721012  RH  055%=      5-min Rain = 0
KSDS 171200Z 00019G24KT 07/M01 A3009 RMK A01 T00711012  RH  056%=      5-min Rain = 0
KSDS 171205Z 00017G23KT 07/M01 A301 RMK A01 T00691012  RH  057%=      5-min Rain = 0
KSDS 171210Z 00017G22KT 07/M01 A301 RMK A01 T00681011  RH  057%=      5-min Rain = 0
KSDS 171215Z 36017G22KT 07/M01 A3011 RMK A01 T00671011  RH  058%=      5-min Rain = 0
KSDS 171220Z 36015G21KT 07/M01 A3011 RMK A01 T00651011  RH  059%=      5-min Rain = 0
KSDS 171225Z 36015G22KT 06/M01 A3011 RMK A01 T00641010  RH  060%=      5-min Rain = 0
KSDS 171230Z 00016G21KT 06/M01 A3012 RMK A01 T00631010  RH  060%=      5-min Rain = 0
KSDS 171235Z 36016G22KT 06/M01 A3012 RMK A01 T00621009  RH  061%=      5-min Rain = 0
KSDS 171240Z 36017G23KT 06/M01 A3012 RMK A01 T00621009  RH  061%=      5-min Rain = 0
KSDS 171245Z 00017KT 06/M01 A3013 RMK A01 T00611008  RH  062%=      5-min Rain = 0
KSDS 171250Z 00016KT 06/M01 A3013 RMK A01 T00601008  RH  063%=      5-min Rain = 0
KSDS 171255Z 00018G25KT 06/M01 A3013 RMK A01 T00601007  RH  063%=      5-min Rain = 0
KSDS 171300Z 00017G24KT 06/M01 A3013 RMK A01 T00591006  RH  063%=      5-min Rain = 0
KSDS 171305Z 00016G23KT 06/M01 A3014 RMK A01 T00571006  RH  064%=      5-min Rain = 0
KSDS 171310Z 00018G23KT 06/M01 A3014 RMK A01 T00571005  RH  065%=      5-min Rain = 0
KSDS 171315Z 00018G23KT 06/M01 A3014 RMK A01 T00561005  RH  065%=      5-min Rain = 0
KSDS 171320Z 00017G22KT 06/M01 A3015 RMK A01 T00551005  RH  066%=      5-min Rain = 0
KSDS 171325Z 00016KT 05/M00 A3015 RMK A01 T00541004  RH  066%=      5-min Rain = 0
KSDS 171330Z 00016G21KT 05/M00 A3015 RMK A01 T00541004  RH  067%=      5-min Rain = 0
KSDS 171335Z 00015G20KT 05/M00 A3016 RMK A01 T00541003  RH  067%=      5-min Rain = 0
KSDS 171340Z 00015G20KT 05/M00 A3016 RMK A01 T00541003  RH  067%=      5-min Rain = 0
KSDS 171345Z 00015G20KT 06/M00 A3016 RMK A01 T00551002  RH  067%=      5-min Rain = 0
KSDS 171350Z 00014G19KT 06/M00 A3016 RMK A01 T00551002  RH  067%=      5-min Rain = 0
KSDS 171355Z 00014G20KT 06/M00 A3017 RMK A01 T00551002  RH  067%=      5-min Rain = 0
KSDS 171400Z 00015G21KT 06/M00 A3017 RMK A01 T00561002  RH  067%=      5-min Rain = 0
KSDS 171405Z 00015G20KT 06/M00 A3017 RMK A01 T00581001  RH  067%=      5-min Rain = 0
KSDS 171410Z 00015G22KT 06/00 A3018 RMK A01 T006000-0  RH  066%=      5-min Rain = 0
KSDS 171415Z 01016G21KT 06/00 A3018 RMK A01 T006200-0  RH  065%=      5-min Rain = 0
KSDS 171420Z 00017KT 06/00 A3019 RMK A01 T00630000  RH  065%=      5-min Rain = 0
KSDS 171425Z 00016G24KT 07/00 A3019 RMK A01 T00650001  RH  064%=      5-min Rain = 0
KSDS 171430Z 01017G22KT 07/00 A3019 RMK A01 T00660001  RH  064%=      5-min Rain = 0
KSDS 171435Z 01017G23KT 07/00 A3019 RMK A01 T00680001  RH  063%=      5-min Rain = 0
KSDS 171440Z 01016G25KT 07/00 A3019 RMK A01 T00700002  RH  063%=      5-min Rain = 0
KSDS 171445Z 01016G21KT 07/00 A3019 RMK A01 T00720003  RH  062%=      5-min Rain = 0
KSDS 171450Z 01019G27KT 07/00 A3019 RMK A01 T00740003  RH  061%=      5-min Rain = 0
KSDS 171455Z 01019G24KT 07/00 A3019 RMK A01 T00740003  RH  062%=      5-min Rain = 0
KSDS 171500Z 01019G26KT 08/00 A302 RMK A01 T00750003  RH  061%=      5-min Rain = 0
KSDS 171505Z 01018G24KT 08/00 A302 RMK A01 T00770003  RH  060%=      5-min Rain = 0
KSDS 171510Z 01018G25KT 08/00 A302 RMK A01 T00790004  RH  059%=      5-min Rain = 0
KSDS 171515Z 01019G25KT 08/00 A302 RMK A01 T00810004  RH  059%=      5-min Rain = 0
KSDS 171520Z 01019G27KT 08/00 A302 RMK A01 T00820004  RH  058%=      5-min Rain = 0
KSDS 171525Z 01020G25KT 08/00 A302 RMK A01 T00830004  RH  058%=      5-min Rain = 0
KSDS 171530Z 01018G25KT 09/00 A302 RMK A01 T00850004  RH  058%=      5-min Rain = 0
KSDS 171535Z 02017G23KT 09/01 A302 RMK A01 T00890005  RH  056%=      5-min Rain = 0
KSDS 171540Z 01017G23KT 09/01 A302 RMK A01 T00890005  RH  056%=      5-min Rain = 0
KSDS 171545Z 02017G24KT 09/01 A302 RMK A01 T00940006  RH  055%=      5-min Rain = 0
KSDS 171550Z 02020G26KT 09/00 A302 RMK A01 T00920004  RH  055%=      5-min Rain = 0
KSDS 171555Z 01018G24KT 09/01 A302 RMK A01 T00940005  RH  054%=      5-min Rain = 0
KSDS 171600Z 02019G24KT 10/00 A302 RMK A01 T00950004  RH  054%=      5-min Rain = 0
KSDS 171605Z 02017G22KT 10/01 A3021 RMK A01 T00980005  RH  053%=      5-min Rain = 0
KSDS 171610Z 00017G24KT 10/01 A3021 RMK A01 T01010005  RH  052%=      5-min Rain = 0
KSDS 171615Z 01018G23KT 10/01 A3021 RMK A01 T00990005  RH  052%=      5-min Rain = 0
KSDS 171620Z 01019G24KT 10/00 A3021 RMK A01 T01020004  RH  051%=      5-min Rain = 0
KSDS 171625Z 02017KT 10/01 A3021 RMK A01 T01040005  RH  051%=      5-min Rain = 0
KSDS 171630Z 02016G22KT 11/01 A3021 RMK A01 T01050005  RH  051%=      5-min Rain = 0
KSDS 171635Z 01016KT 11/01 A302 RMK A01 T01080006  RH  050%=      5-min Rain = 0
KSDS 171640Z 02015KT 11/01 A302 RMK A01 T01090005  RH  049%=      5-min Rain = 0
KSDS 171645Z 01015KT 11/01 A302 RMK A01 T01130006  RH  048%=      5-min Rain = 0
KSDS 171650Z 01017KT 11/01 A302 RMK A01 T01140005  RH  048%=      5-min Rain = 0
KSDS 171655Z 02016G21KT 11/01 A302 RMK A01 T01130005  RH  048%=      5-min Rain = 0
KSDS 171700Z 02015KT 12/01 A302 RMK A01 T01160006  RH  047%=      5-min Rain = 0
KSDS 171705Z 02014G19KT 12/01 A302 RMK A01 T01200006  RH  046%=      5-min Rain = 0
KSDS 171710Z 02014KT 12/01 A302 RMK A01 T01230006  RH  045%=      5-min Rain = 0
KSDS 171715Z 01013KT 12/01 A302 RMK A01 T01230007  RH  046%=      5-min Rain = 0
KSDS 171720Z 01014G19KT 12/01 A302 RMK A01 T01240006  RH  045%=      5-min Rain = 0
KSDS 171725Z 02013G18KT 12/01 A302 RMK A01 T01240007  RH  045%=      5-min Rain = 0
KSDS 171730Z 01012G18KT 13/01 A302 RMK A01 T01300008  RH  044%=      5-min Rain = 0
KSDS 171735Z 02015G20KT 13/01 A3019 RMK A01 T01300007  RH  043%=      5-min Rain = 0
KSDS 171740Z 02014G20KT 13/01 A3019 RMK A01 T01290006  RH  044%=      5-min Rain = 0
KSDS 171745Z 02015KT 13/01 A3019 RMK A01 T01320007  RH  043%=      5-min Rain = 0
KSDS 171750Z 01013G18KT 13/01 A3019 RMK A01 T01300007  RH  044%=      5-min Rain = 0
KSDS 171755Z 00014KT 13/01 A3018 RMK A01 T01340007  RH  043%=      5-min Rain = 0
KSDS 171800Z 01012KT 14/01 A3018 RMK A01 T01370008  RH  042%=      5-min Rain = 0
KSDS 171805Z 01012G17KT 14/01 A3018 RMK A01 T01400008  RH  041%=      5-min Rain = 0
KSDS 171810Z 01012KT 14/01 A3018 RMK A01 T01410008  RH  041%=      5-min Rain = 0
KSDS 171815Z 02010KT 14/01 A3017 RMK A01 T01430008  RH  040%=      5-min Rain = 0
KSDS 171820Z 02012G18KT 14/01 A3017 RMK A01 T01430006  RH  040%=      5-min Rain = 0
KSDS 171825Z 03013KT 14/01 A3017 RMK A01 T01420006  RH  040%=      5-min Rain = 0
KSDS 171830Z 02012KT 14/01 A3017 RMK A01 T01410005  RH  040%=      5-min Rain = 0
KSDS 171835Z 03011G16KT 15/01 A3017 RMK A01 T01450006  RH  039%=      5-min Rain = 0
KSDS 171840Z 02010KT 15/01 A3016 RMK A01 T01450006  RH  039%=      5-min Rain = 0
KSDS 171845Z 02009G14KT 15/01 A3016 RMK A01 T01490007  RH  038%=      5-min Rain = 0
KSDS 171850Z 02011KT 15/01 A3016 RMK A01 T01530006  RH  037%=      5-min Rain = 0
KSDS 171855Z 02011G16KT 15/01 A3016 RMK A01 T01510006  RH  038%=      5-min Rain = 0
KSDS 171900Z 01010G15KT 15/01 A3016 RMK A01 T01470006  RH  039%=      5-min Rain = 0
KSDS 171905Z 01008G13KT 15/01 A3016 RMK A01 T01540006  RH  037%=      5-min Rain = 0
KSDS 171910Z 01010G17KT 15/01 A3015 RMK A01 T01540007  RH  037%=      5-min Rain = 0
KSDS 171915Z 02008G13KT 16/01 A3015 RMK A01 T01550006  RH  037%=      5-min Rain = 0
KSDS 171920Z 01008G13KT 16/01 A3015 RMK A01 T01590006  RH  036%=      5-min Rain = 0
KSDS 171925Z 03008KT 16/01 A3015 RMK A01 T01550005  RH  037%=      5-min Rain = 0
KSDS 171930Z 02009G14KT 16/00 A3015 RMK A01 T01580004  RH  035%=      5-min Rain = 0
KSDS 171935Z 01009G14KT 16/00 A3015 RMK A01 T01560002  RH  036%=      5-min Rain = 0
KSDS 171940Z 03009G14KT 16/00 A3015 RMK A01 T01570001  RH  035%=      5-min Rain = 0
KSDS 171945Z 01009KT 16/00 A3014 RMK A01 T01600004  RH  035%=      5-min Rain = 0
KSDS 171950Z 03008G13KT 17/00 A3014 RMK A01 T01650004  RH  034%=      5-min Rain = 0
KSDS 171955Z 01008G14KT 17/01 A3014 RMK A01 T01650006  RH  034%=      5-min Rain = 0
KSDS 172000Z 02009G14KT 17/00 A3014 RMK A01 T01650004  RH  034%=      5-min Rain = 0
KSDS 172005Z 03010G17KT 16/00 A3013 RMK A01 T01640003  RH  034%=      5-min Rain = 0
KSDS 172010Z 00006G11KT 16/01 A3013 RMK A01 T01640006  RH  035%=      5-min Rain = 0
KSDS 172015Z 02009KT 16/01 A3013 RMK A01 T01630005  RH  035%=      5-min Rain = 0
KSDS 172020Z 01007G12KT 17/01 A3013 RMK A01 T01650006  RH  034%=      5-min Rain = 0
KSDS 172025Z 34009KT 16/01 A3013 RMK A01 T01640006  RH  035%=      5-min Rain = 0
KSDS 172030Z 36008KT 16/01 A3013 RMK A01 T01630006  RH  035%=      5-min Rain = 0
KSDS 172035Z 02007KT 16/01 A3013 RMK A01 T01640005  RH  034%=      5-min Rain = 0
KSDS 172040Z 02009KT 17/01 A3013 RMK A01 T01650005  RH  034%=      5-min Rain = 0
KSDS 172045Z 00008KT 16/01 A3013 RMK A01 T01640005  RH  034%=      5-min Rain = 0
KSDS 172050Z 01007KT 16/01 A3013 RMK A01 T01630005  RH  035%=      5-min Rain = 0
KSDS 172055Z 04006G12KT 16/00 A3012 RMK A01 T01640004  RH  034%=      5-min Rain = 0
KSDS 172100Z 07003KT 17/01 A3012 RMK A01 T01650005  RH  034%=      5-min Rain = 0
KSDS 172105Z 01006KT 17/01 A3012 RMK A01 T01650005  RH  034%=      5-min Rain = 0
KSDS 172110Z 02006KT 16/01 A3012 RMK A01 T01630005  RH  034%=      5-min Rain = 0
KSDS 172115Z 05004KT 16/01 A3012 RMK A01 T01630005  RH  034%=      5-min Rain = 0
KSDS 172120Z 06004KT 16/00 A3012 RMK A01 T01620004  RH  035%=      5-min Rain = 0
KSDS 172125Z 04004KT 17/00 A3012 RMK A01 T01650004  RH  034%=      5-min Rain = 0
KSDS 172130Z 04004KT 17/00 A3012 RMK A01 T01650004  RH  034%=      5-min Rain = 0
KSDS 172135Z 08003KT 16/00 A3012 RMK A01 T01620004  RH  035%=      5-min Rain = 0
KSDS 172140Z 09003KT 16/00 A3012 RMK A01 T01610004  RH  035%=      5-min Rain = 0
KSDS 172145Z 12004KT 16/00 A3012 RMK A01 T01630004  RH  035%=      5-min Rain = 0
KSDS 172150Z 13004KT 16/00 A3012 RMK A01 T01640004  RH  034%=      5-min Rain = 0
KSDS 172155Z 05004KT 17/00 A3011 RMK A01 T01650004  RH  034%=      5-min Rain = 0
KSDS 172200Z 04003KT 16/00 A3011 RMK A01 T01610004  RH  035%=      5-min Rain = 0
KSDS 172205Z 08002KT 16/00 A3011 RMK A01 T01620004  RH  035%=      5-min Rain = 0
KSDS 172210Z 09003KT 17/00 A3011 RMK A01 T01660004  RH  034%=      5-min Rain = 0
KSDS 172215Z 08002KT 16/00 A3011 RMK A01 T01610004  RH  035%=      5-min Rain = 0
KSDS 172220Z 32003KT 16/00 A301 RMK A01 T01620004  RH  035%=      5-min Rain = 0
KSDS 172225Z 33003KT 16/00 A301 RMK A01 T01610004  RH  035%=      5-min Rain = 0
KSDS 172230Z 34003KT 16/00 A301 RMK A01 T01620003  RH  034%=      5-min Rain = 0
KSDS 172235Z 35003KT 16/00 A301 RMK A01 T01620003  RH  034%=      5-min Rain = 0
KSDS 172240Z 33003KT 16/00 A301 RMK A01 T01600002  RH  035%=      5-min Rain = 0
KSDS 172245Z 34002KT 16/00 A301 RMK A01 T01590002  RH  035%=      5-min Rain = 0
KSDS 172250Z 02002KT 16/00 A301 RMK A01 T01600002  RH  034%=      5-min Rain = 0
KSDS 172255Z 02002KT 16/00 A301 RMK A01 T01580002  RH  035%=      5-min Rain = 0
KSDS 172300Z 30003KT 16/00 A301 RMK A01 T01570001  RH  035%=      5-min Rain = 0
KSDS 172305Z 28001KT 16/00 A3011 RMK A01 T015500-0  RH  035%=      5-min Rain = 0
KSDS 172310Z 27002KT 15/00 A3011 RMK A01 T01540000  RH  035%=      5-min Rain = 0
KSDS 172315Z 31003KT 15/00 A3011 RMK A01 T01490001  RH  037%=      5-min Rain = 0
KSDS 172320Z 32003KT 14/00 A301 RMK A01 T01430001  RH  038%=      5-min Rain = 0
KSDS 172325Z 34003KT 14/00 A3011 RMK A01 T01380000  RH  039%=      5-min Rain = 0
KSDS 172330Z 32003KT 13/00 A301 RMK A01 T013200-0  RH  041%=      5-min Rain = 0
KSDS 172335Z 34003KT 13/00 A301 RMK A01 T01270000  RH  042%=      5-min Rain = 0
KSDS 172340Z 34003KT 13/00 A3011 RMK A01 T01250001  RH  043%=      5-min Rain = 0
KSDS 172345Z 34003KT 12/00 A3011 RMK A01 T01230001  RH  044%=      5-min Rain = 0
KSDS 172350Z 34003KT 12/00 A3011 RMK A01 T01200001  RH  045%=      5-min Rain = 0
KSDS 172355Z 35002KT 12/00 A3011 RMK A01 T01170001  RH  045%=      5-min Rain = 0
KSDS 180000Z 14001KT 11/M00 A3011 RMK A01 T01111001  RH  046%=      5-min Rain = 0
KSDS 180005Z 16003KT 11/M01 A3011 RMK A01 T01051005  RH  047%=      5-min Rain = 0
KSDS 180010Z 15002KT 10/M00 A3011 RMK A01 T01031003  RH  048%=      5-min Rain = 0
KSDS 180015Z 14002KT 11/M00 A3011 RMK A01 T01131001  RH  046%=      5-min Rain = 0
KSDS 180020Z 12002KT 12/00 A3011 RMK A01 T011500-0  RH  045%=      5-min Rain = 0
KSDS 180025Z 12002KT 12/00 A3011 RMK A01 T01170001  RH  045%=      5-min Rain = 0
KSDS 180030Z 11002KT 12/00 A3011 RMK A01 T01190001  RH  045%=      5-min Rain = 0
KSDS 180035Z 12002KT 12/00 A3011 RMK A01 T01200002  RH  045%=      5-min Rain = 0
KSDS 180040Z 14004KT 10/M01 A3011 RMK A01 T01021007  RH  047%=      5-min Rain = 0
KSDS 180045Z 12004KT 10/M00 A3011 RMK A01 T01011001  RH  050%=      5-min Rain = 0
KSDS 180050Z 11004KT 10/M00 A3011 RMK A01 T01001001  RH  050%=      5-min Rain = 0
KSDS 180055Z 11004KT 10/00 A3011 RMK A01 T010100-0  RH  050%=      5-min Rain = 0
KSDS 180100Z 11004KT 10/00 A3011 RMK A01 T010100-0  RH  050%=      5-min Rain = 0
KSDS 180105Z 12004KT 10/00 A3011 RMK A01 T01020000  RH  050%=      5-min Rain = 0
KSDS 180110Z 12004KT 10/00 A3011 RMK A01 T009900-0  RH  051%=      5-min Rain = 0
KSDS 180115Z 13004KT 09/M00 A3011 RMK A01 T00921002  RH  052%=      5-min Rain = 0
KSDS 180120Z 13004KT 09/M00 A3011 RMK A01 T00861003  RH  054%=      5-min Rain = 0
KSDS 180125Z 13004KT 09/M00 A3011 RMK A01 T00871003  RH  054%=      5-min Rain = 0
KSDS 180130Z 14004KT 08/M00 A3011 RMK A01 T00841004  RH  055%=      5-min Rain = 0
KSDS 180135Z 13005KT 08/M00 A3011 RMK A01 T00821003  RH  056%=      5-min Rain = 0
KSDS 180140Z 13006KT 08/M00 A3011 RMK A01 T00831002  RH  056%=      5-min Rain = 0
KSDS 180145Z 14005KT 08/M00 A3011 RMK A01 T00821002  RH  056%=      5-min Rain = 0
KSDS 180150Z 13006KT 08/M00 A3011 RMK A01 T00831001  RH  056%=      5-min Rain = 0
KSDS 180155Z 13006KT 08/M00 A301 RMK A01 T00831002  RH  056%=      5-min Rain = 0
KSDS 180200Z 14006KT 08/M00 A3011 RMK A01 T00801002  RH  057%=      5-min Rain = 0
KSDS 180205Z 15006KT 08/M00 A3011 RMK A01 T00781002  RH  057%=      5-min Rain = 0
KSDS 180210Z 15005KT 08/M00 A3011 RMK A01 T00771002  RH  058%=      5-min Rain = 0
KSDS 180215Z 16005KT 08/M00 A3012 RMK A01 T00761004  RH  057%=      5-min Rain = 0
KSDS 180220Z 18005KT 07/M01 A3012 RMK A01 T00671007  RH  060%=      5-min Rain = 0
KSDS 180225Z 17006KT 06/M01 A3012 RMK A01 T00631007  RH  061%=      5-min Rain = 0
KSDS 180230Z 17006KT 06/M01 A3012 RMK A01 T00611008  RH  062%=      5-min Rain = 0
KSDS 180235Z 18006KT 06/M01 A3012 RMK A01 T00601007  RH  063%=      5-min Rain = 0
KSDS 180240Z 18005KT 06/M01 A3013 RMK A01 T00611006  RH  063%=      5-min Rain = 0
KSDS 180245Z 18005KT 06/M01 A3013 RMK A01 T00641005  RH  062%=      5-min Rain = 0
KSDS 180250Z 18005KT 06/M01 A3013 RMK A01 T00621006  RH  062%=      5-min Rain = 0
KSDS 180255Z 18005KT 06/M01 A3013 RMK A01 T00601006  RH  063%=      5-min Rain = 0
KSDS 180300Z 19005KT 06/M01 A3013 RMK A01 T00591006  RH  064%=      5-min Rain = 0
KSDS 180305Z 19005KT 06/M01 A3013 RMK A01 T00581006  RH  064%=      5-min Rain = 0
KSDS 180310Z 20005KT 06/M01 A3013 RMK A01 T00551007  RH  065%=      5-min Rain = 0
KSDS 180315Z 21005KT 05/M01 A3013 RMK A01 T00481010  RH  067%=      5-min Rain = 0
KSDS 180320Z 22005KT 04/M01 A3013 RMK A01 T00441012  RH  068%=      5-min Rain = 0
KSDS 180325Z 21005KT 04/M01 A3013 RMK A01 T00401012  RH  069%=      5-min Rain = 0
KSDS 180330Z 21006KT 04/M01 A3013 RMK A01 T00411010  RH  070%=      5-min Rain = 0
KSDS 180335Z 22007KT 04/M01 A3013 RMK A01 T00421008  RH  070%=      5-min Rain = 0
KSDS 180340Z 22006KT 04/M01 A3013 RMK A01 T00431007  RH  071%=      5-min Rain = 0
KSDS 180345Z 22006KT 04/M01 A3013 RMK A01 T00421008  RH  071%=      5-min Rain = 0
KSDS 180350Z 22006KT 04/M01 A3012 RMK A01 T00411009  RH  071%=      5-min Rain = 0
KSDS 180355Z 21007KT 04/M01 A3012 RMK A01 T00401009  RH  071%=      5-min Rain = 0
KSDS 180400Z 21007KT 04/M01 A3012 RMK A01 T00401009  RH  071%=      5-min Rain = 0
KSDS 180405Z 21007KT 04/M01 A3011 RMK A01 T00421006  RH  071%=      5-min Rain = 0
KSDS 180410Z 21007KT 04/M01 A3011 RMK A01 T00431007  RH  071%=      5-min Rain = 0
KSDS 180415Z 21006KT 04/M01 A3011 RMK A01 T00411008  RH  071%=      5-min Rain = 0
KSDS 180420Z 22006KT 04/M01 A3011 RMK A01 T00401008  RH  072%=      5-min Rain = 0
KSDS 180425Z 22007KT 04/M01 A3011 RMK A01 T00371009  RH  072%=      5-min Rain = 0
KSDS 180430Z 21007KT 04/M01 A3011 RMK A01 T00401006  RH  073%=      5-min Rain = 0
KSDS 180435Z 21007KT 05/M00 A3011 RMK A01 T00451004  RH  071%=      5-min Rain = 0
KSDS 180440Z 22007KT 05/M00 A3011 RMK A01 T00461004  RH  071%=      5-min Rain = 0
KSDS 180445Z 22008KT 05/M00 A3011 RMK A01 T00451004  RH  071%=      5-min Rain = 0
KSDS 180450Z 21008KT 05/M00 A3011 RMK A01 T00461003  RH  071%=      5-min Rain = 0
KSDS 180455Z 22006KT 04/M01 A3011 RMK A01 T00441005  RH  071%=      5-min Rain = 0
KSDS 180500Z 23006KT 04/M01 A3011 RMK A01 T00371009  RH  073%=      5-min Rain = 0
KSDS 180505Z 23006KT 03/M01 A3011 RMK A01 T00311012  RH  074%=      5-min Rain = 0
KSDS 180510Z 23006KT 03/M01 A3011 RMK A01 T00281013  RH  075%=      5-min Rain = 0
KSDS 180515Z 24006KT 03/M01 A3011 RMK A01 T00281012  RH  076%=      5-min Rain = 0
KSDS 180520Z 23007KT 03/M01 A301 RMK A01 T00281011  RH  076%=      5-min Rain = 0
KSDS 180525Z 23007KT 03/M01 A301 RMK A01 T00251012  RH  077%=      5-min Rain = 0
KSDS 180530Z 23007KT 03/M01 A301 RMK A01 T00251011  RH  078%=      5-min Rain = 0
KSDS 180535Z 23008KT 02/M01 A3009 RMK A01 T00241012  RH  078%=      5-min Rain = 0
KSDS 180540Z 23008KT 02/M01 A3009 RMK A01 T00221013  RH  078%=      5-min Rain = 0
KSDS 180545Z 23008KT 02/M01 A3009 RMK A01 T00231011  RH  079%=      5-min Rain = 0
KSDS 180550Z 23007KT 02/M01 A3009 RMK A01 T00231011  RH  079%=      5-min Rain = 0
KSDS 180555Z 23007KT 02/M01 A3009 RMK A01 T00231010  RH  079%=      5-min Rain = 0

Page generated in 0.0182 seconds.